GRL3402 BGBW-BGGH
Flight info
| Callsign | GRL3402 |
|---|---|
| Flight time | 0h 57m |
| Altitude | 24000 |
| Route | OVEDA Y26 NUKRI |
| Aircraft | DH8B/M-SDFGR/S |
Departure
| Time | 2026-05-05 21:19 |
|---|---|
| Airport | Narsarsuaq Airport (BGBW) |
Arrival
| Time | 2026-05-05 22:16 |
|---|---|
| Airport | Nuuk International Airport (BGGH) |
| Time | Latitude | Longitude | Altitude | Speed | Heading |
|---|---|---|---|---|---|
| 2026-05-05 21:15 | 61.16322 | -45.42095 | 82 ft | 0 kts | 311° |
| 2026-05-05 21:15 | 61.16324 | -45.42114 | 83 ft | 8 kts | 265° |
| 2026-05-05 21:15 | 61.16258 | -45.42244 | 71 ft | 17 kts | 220° |
| 2026-05-05 21:16 | 61.16153 | -45.42425 | 66 ft | 23 kts | 219° |
| 2026-05-05 21:16 | 61.16026 | -45.42651 | 64 ft | 25 kts | 220° |
| 2026-05-05 21:16 | 61.15900 | -45.42868 | 60 ft | 22 kts | 220° |
| 2026-05-05 21:16 | 61.15776 | -45.43088 | 53 ft | 25 kts | 220° |
| 2026-05-05 21:17 | 61.15644 | -45.43312 | 46 ft | 21 kts | 219° |
| 2026-05-05 21:17 | 61.15561 | -45.43458 | 46 ft | 13 kts | 219° |
| 2026-05-05 21:17 | 61.15487 | -45.43564 | 43 ft | 13 kts | 211° |
| 2026-05-05 21:17 | 61.15456 | -45.43642 | 43 ft | 7 kts | 339° |
| 2026-05-05 21:18 | 61.15475 | -45.43625 | 43 ft | 0 kts | 40° |
| 2026-05-05 21:18 | 61.15660 | -45.43295 | 48 ft | 78 kts | 41° |
| 2026-05-05 21:18 | 61.16192 | -45.42339 | 114 ft | 120 kts | 40° |
| 2026-05-05 21:19 | 61.16892 | -45.41140 | 511 ft | 142 kts | 40° |
| 2026-05-05 21:19 | 61.17901 | -45.39876 | 467 ft | 197 kts | 16° |
| 2026-05-05 21:19 | 61.19217 | -45.40041 | 1158 ft | 194 kts | 339° |
| 2026-05-05 21:19 | 61.20113 | -45.41748 | 2158 ft | 171 kts | 295° |
| 2026-05-05 21:20 | 61.20272 | -45.44127 | 3067 ft | 166 kts | 270° |
| 2026-05-05 21:20 | 61.20286 | -45.46519 | 3898 ft | 167 kts | 273° |
| 2026-05-05 21:20 | 61.20327 | -45.48952 | 4702 ft | 169 kts | 272° |
| 2026-05-05 21:20 | 61.20365 | -45.51363 | 5605 ft | 165 kts | 272° |
| 2026-05-05 21:21 | 61.20606 | -45.53665 | 6413 ft | 170 kts | 302° |
| 2026-05-05 21:21 | 61.21452 | -45.55454 | 7117 ft | 175 kts | 321° |
| 2026-05-05 21:21 | 61.22343 | -45.57082 | 8067 ft | 170 kts | 315° |
| 2026-05-05 21:21 | 61.23178 | -45.58837 | 8830 ft | 176 kts | 317° |
| 2026-05-05 21:22 | 61.24102 | -45.60554 | 9612 ft | 180 kts | 318° |
| 2026-05-05 21:22 | 61.25014 | -45.62375 | 10412 ft | 183 kts | 316° |
| 2026-05-05 21:22 | 61.25948 | -45.64210 | 11226 ft | 186 kts | 318° |
| 2026-05-05 21:22 | 61.26900 | -45.66053 | 12031 ft | 188 kts | 316° |
| 2026-05-05 21:23 | 61.27851 | -45.67946 | 12844 ft | 191 kts | 317° |
| 2026-05-05 21:23 | 61.28829 | -45.69838 | 13658 ft | 193 kts | 317° |
| 2026-05-05 21:23 | 61.29807 | -45.71783 | 14480 ft | 196 kts | 316° |
| 2026-05-05 21:23 | 61.30804 | -45.73728 | 15320 ft | 197 kts | 317° |
| 2026-05-05 21:24 | 61.31790 | -45.75673 | 16123 ft | 199 kts | 316° |
| 2026-05-05 21:24 | 61.32797 | -45.77672 | 16947 ft | 201 kts | 317° |
| 2026-05-05 21:24 | 61.33821 | -45.79671 | 17765 ft | 203 kts | 316° |
| 2026-05-05 21:24 | 61.34741 | -45.81508 | 18501 ft | 205 kts | 316° |
| 2026-05-05 21:25 | 61.35786 | -45.83561 | 19308 ft | 208 kts | 317° |
| 2026-05-05 21:25 | 61.36839 | -45.85648 | 20119 ft | 211 kts | 316° |
| 2026-05-05 21:25 | 61.37907 | -45.87807 | 20897 ft | 217 kts | 315° |
| 2026-05-05 21:25 | 61.39028 | -45.89982 | 21679 ft | 223 kts | 316° |
| 2026-05-05 21:26 | 61.40183 | -45.92201 | 22478 ft | 228 kts | 317° |
| 2026-05-05 21:26 | 61.41323 | -45.94533 | 23270 ft | 231 kts | 314° |
| 2026-05-05 21:26 | 61.42465 | -45.96904 | 23985 ft | 242 kts | 317° |
| 2026-05-05 21:26 | 61.43785 | -45.99384 | 24185 ft | 273 kts | 317° |
| 2026-05-05 21:27 | 61.45220 | -46.02215 | 24249 ft | 291 kts | 316° |
| 2026-05-05 21:27 | 61.46700 | -46.05220 | 24425 ft | 300 kts | 316° |
| 2026-05-05 21:27 | 61.48213 | -46.08232 | 24761 ft | 300 kts | 317° |
| 2026-05-05 21:27 | 61.49733 | -46.11247 | 25027 ft | 303 kts | 317° |
| 2026-05-05 21:28 | 61.51269 | -46.14351 | 25107 ft | 311 kts | 317° |
| 2026-05-05 21:28 | 61.52850 | -46.17522 | 25149 ft | 318 kts | 317° |
| 2026-05-05 21:28 | 61.54446 | -46.20699 | 25178 ft | 324 kts | 317° |
| 2026-05-05 21:28 | 61.56084 | -46.23982 | 25206 ft | 328 kts | 317° |
| 2026-05-05 21:29 | 61.57742 | -46.27304 | 25226 ft | 331 kts | 317° |
| 2026-05-05 21:29 | 61.59413 | -46.30654 | 25230 ft | 334 kts | 317° |
| 2026-05-05 21:29 | 61.61100 | -46.34037 | 25226 ft | 336 kts | 317° |
| 2026-05-05 21:29 | 61.62790 | -46.37447 | 25210 ft | 338 kts | 317° |
| 2026-05-05 21:30 | 61.64486 | -46.40906 | 25184 ft | 340 kts | 317° |
| 2026-05-05 21:30 | 61.66165 | -46.44319 | 25150 ft | 341 kts | 317° |
| 2026-05-05 21:30 | 61.67878 | -46.47801 | 25104 ft | 343 kts | 317° |
| 2026-05-05 21:30 | 61.69594 | -46.51303 | 25051 ft | 344 kts | 317° |
| 2026-05-05 21:31 | 61.71317 | -46.54826 | 24984 ft | 346 kts | 317° |
| 2026-05-05 21:31 | 61.73047 | -46.58358 | 24925 ft | 347 kts | 317° |
| 2026-05-05 21:31 | 61.74780 | -46.61911 | 24845 ft | 348 kts | 316° |
| 2026-05-05 21:31 | 61.76514 | -46.65481 | 24782 ft | 349 kts | 316° |
| 2026-05-05 21:32 | 61.78260 | -46.69069 | 24690 ft | 350 kts | 316° |
| 2026-05-05 21:32 | 61.80011 | -46.72667 | 24603 ft | 352 kts | 316° |
| 2026-05-05 21:32 | 61.81742 | -46.76241 | 24514 ft | 353 kts | 316° |
| 2026-05-05 21:32 | 61.83497 | -46.79876 | 24421 ft | 353 kts | 316° |
| 2026-05-05 21:33 | 61.85257 | -46.83513 | 24320 ft | 354 kts | 316° |
| 2026-05-05 21:33 | 61.87017 | -46.87163 | 24230 ft | 354 kts | 316° |
| 2026-05-05 21:33 | 61.88767 | -46.90802 | 24154 ft | 352 kts | 316° |
| 2026-05-05 21:33 | 61.90502 | -46.94422 | 24154 ft | 348 kts | 316° |
| 2026-05-05 21:34 | 61.92222 | -46.98021 | 24151 ft | 346 kts | 316° |
| 2026-05-05 21:34 | 61.93934 | -47.01591 | 24144 ft | 345 kts | 316° |
| 2026-05-05 21:34 | 61.95618 | -47.05120 | 24138 ft | 344 kts | 316° |
| 2026-05-05 21:34 | 61.97318 | -47.08687 | 24139 ft | 343 kts | 316° |
| 2026-05-05 21:35 | 61.99020 | -47.12254 | 24135 ft | 343 kts | 316° |
| 2026-05-05 21:35 | 62.00714 | -47.15821 | 24138 ft | 343 kts | 316° |
| 2026-05-05 21:35 | 62.02408 | -47.19384 | 24144 ft | 341 kts | 316° |
| 2026-05-05 21:35 | 62.04091 | -47.22925 | 24147 ft | 339 kts | 315° |
| 2026-05-05 21:36 | 62.05763 | -47.26445 | 24144 ft | 337 kts | 316° |
| 2026-05-05 21:36 | 62.07428 | -47.29958 | 24139 ft | 337 kts | 315° |
| 2026-05-05 21:36 | 62.09054 | -47.33454 | 24138 ft | 336 kts | 315° |
| 2026-05-05 21:36 | 62.10710 | -47.36983 | 24135 ft | 336 kts | 315° |
| 2026-05-05 21:37 | 62.12365 | -47.40506 | 24139 ft | 335 kts | 315° |
| 2026-05-05 21:37 | 62.14020 | -47.44032 | 24138 ft | 336 kts | 315° |
| 2026-05-05 21:37 | 62.15675 | -47.47564 | 24135 ft | 337 kts | 315° |
| 2026-05-05 21:37 | 62.17330 | -47.51109 | 24139 ft | 337 kts | 315° |
| 2026-05-05 21:38 | 62.18985 | -47.54660 | 24139 ft | 337 kts | 315° |
| 2026-05-05 21:38 | 62.20639 | -47.58218 | 24135 ft | 338 kts | 315° |
| 2026-05-05 21:38 | 62.22276 | -47.61740 | 24139 ft | 338 kts | 315° |
| 2026-05-05 21:38 | 62.23933 | -47.65313 | 24139 ft | 338 kts | 315° |
| 2026-05-05 21:39 | 62.25588 | -47.68893 | 24137 ft | 339 kts | 315° |
| 2026-05-05 21:39 | 62.27250 | -47.72491 | 24130 ft | 339 kts | 315° |
| 2026-05-05 21:39 | 62.28910 | -47.76090 | 24128 ft | 340 kts | 315° |
| 2026-05-05 21:39 | 62.30575 | -47.79690 | 24129 ft | 339 kts | 315° |
| 2026-05-05 21:40 | 62.32239 | -47.83289 | 24128 ft | 339 kts | 315° |
| 2026-05-05 21:40 | 62.33895 | -47.86890 | 24131 ft | 338 kts | 315° |
| 2026-05-05 21:40 | 62.35546 | -47.90496 | 24131 ft | 338 kts | 315° |
| 2026-05-05 21:40 | 62.37199 | -47.94097 | 24129 ft | 338 kts | 315° |
| 2026-05-05 21:41 | 62.38830 | -47.97652 | 24127 ft | 338 kts | 315° |
| 2026-05-05 21:41 | 62.40478 | -48.01267 | 24127 ft | 338 kts | 315° |
| 2026-05-05 21:41 | 62.42129 | -48.04875 | 24131 ft | 338 kts | 315° |
| 2026-05-05 21:41 | 62.43779 | -48.08499 | 24131 ft | 338 kts | 315° |
| 2026-05-05 21:42 | 62.45429 | -48.12122 | 24129 ft | 338 kts | 315° |
| 2026-05-05 21:42 | 62.47075 | -48.15747 | 24128 ft | 338 kts | 315° |
| 2026-05-05 21:42 | 62.48719 | -48.19380 | 24128 ft | 338 kts | 315° |
| 2026-05-05 21:42 | 62.50369 | -48.23010 | 24129 ft | 338 kts | 315° |
| 2026-05-05 21:43 | 62.51988 | -48.26602 | 24130 ft | 338 kts | 315° |
| 2026-05-05 21:43 | 62.53629 | -48.30247 | 24127 ft | 338 kts | 315° |
| 2026-05-05 21:43 | 62.55274 | -48.33881 | 24125 ft | 338 kts | 315° |
| 2026-05-05 21:43 | 62.56910 | -48.37525 | 24122 ft | 337 kts | 315° |
| 2026-05-05 21:44 | 62.58544 | -48.41178 | 24119 ft | 337 kts | 315° |
| 2026-05-05 21:44 | 62.60181 | -48.44814 | 24121 ft | 336 kts | 315° |
| 2026-05-05 21:44 | 62.61808 | -48.48456 | 24122 ft | 336 kts | 315° |
| 2026-05-05 21:44 | 62.63431 | -48.52106 | 24121 ft | 336 kts | 315° |
| 2026-05-05 21:45 | 62.65038 | -48.55690 | 24118 ft | 335 kts | 315° |
| 2026-05-05 21:45 | 62.66660 | -48.59330 | 24121 ft | 335 kts | 315° |
| 2026-05-05 21:45 | 62.68273 | -48.62982 | 24119 ft | 334 kts | 315° |
| 2026-05-05 21:45 | 62.69891 | -48.66612 | 24118 ft | 334 kts | 315° |
| 2026-05-05 21:46 | 62.71506 | -48.70249 | 24112 ft | 334 kts | 315° |
| 2026-05-05 21:46 | 62.73111 | -48.73904 | 24112 ft | 333 kts | 315° |
| 2026-05-05 21:46 | 62.74721 | -48.77540 | 24112 ft | 333 kts | 315° |
| 2026-05-05 21:46 | 62.76331 | -48.81179 | 24112 ft | 333 kts | 315° |
| 2026-05-05 21:47 | 62.77906 | -48.84783 | 24111 ft | 333 kts | 315° |
| 2026-05-05 21:47 | 62.79509 | -48.88426 | 24111 ft | 332 kts | 315° |
| 2026-05-05 21:47 | 62.81112 | -48.92069 | 24111 ft | 332 kts | 315° |
| 2026-05-05 21:47 | 62.82707 | -48.95733 | 24112 ft | 332 kts | 315° |
| 2026-05-05 21:48 | 62.84308 | -48.99380 | 24113 ft | 332 kts | 315° |
| 2026-05-05 21:48 | 62.85906 | -49.03038 | 24111 ft | 332 kts | 314° |
| 2026-05-05 21:48 | 62.87496 | -49.06713 | 24107 ft | 332 kts | 315° |
| 2026-05-05 21:48 | 62.89091 | -49.10362 | 24102 ft | 332 kts | 315° |
| 2026-05-05 21:49 | 62.90684 | -49.14024 | 24101 ft | 332 kts | 314° |
| 2026-05-05 21:49 | 62.92246 | -49.17655 | 24101 ft | 332 kts | 315° |
| 2026-05-05 21:49 | 62.93838 | -49.21310 | 24101 ft | 331 kts | 315° |
| 2026-05-05 21:49 | 62.95426 | -49.24982 | 24099 ft | 331 kts | 314° |
| 2026-05-05 21:50 | 62.97003 | -49.28670 | 24100 ft | 331 kts | 314° |
| 2026-05-05 21:50 | 62.98593 | -49.32342 | 24100 ft | 332 kts | 315° |
| 2026-05-05 21:50 | 63.00177 | -49.36024 | 24103 ft | 331 kts | 314° |
| 2026-05-05 21:50 | 63.01751 | -49.39716 | 24099 ft | 331 kts | 315° |
| 2026-05-05 21:51 | 63.03336 | -49.43390 | 24096 ft | 331 kts | 315° |
| 2026-05-05 21:51 | 63.04912 | -49.47081 | 24089 ft | 331 kts | 314° |
| 2026-05-05 21:51 | 63.06464 | -49.50739 | 24093 ft | 331 kts | 315° |
| 2026-05-05 21:51 | 63.08047 | -49.54422 | 24090 ft | 330 kts | 315° |
| 2026-05-05 21:52 | 63.11179 | -49.61822 | 24093 ft | 330 kts | 314° |
| 2026-05-05 21:52 | 63.12752 | -49.65507 | 24092 ft | 329 kts | 315° |
| 2026-05-05 21:52 | 63.14316 | -49.69201 | 24098 ft | 328 kts | 314° |
| 2026-05-05 21:53 | 63.15870 | -49.72905 | 24088 ft | 329 kts | 314° |
| 2026-05-05 21:53 | 63.17433 | -49.76586 | 24091 ft | 328 kts | 315° |
| 2026-05-05 21:53 | 63.18970 | -49.80233 | 24079 ft | 328 kts | 314° |
| 2026-05-05 21:53 | 63.20519 | -49.83947 | 24080 ft | 327 kts | 314° |
| 2026-05-05 21:54 | 63.22075 | -49.87624 | 24084 ft | 327 kts | 314° |
| 2026-05-05 21:54 | 63.23621 | -49.91316 | 24082 ft | 327 kts | 314° |
| 2026-05-05 21:54 | 63.25159 | -49.95019 | 24083 ft | 326 kts | 314° |
| 2026-05-05 21:54 | 63.26705 | -49.98691 | 24079 ft | 326 kts | 314° |
| 2026-05-05 21:55 | 63.28239 | -50.02384 | 24084 ft | 325 kts | 314° |
| 2026-05-05 21:55 | 63.29767 | -50.06073 | 24086 ft | 324 kts | 314° |
| 2026-05-05 21:55 | 63.31280 | -50.09688 | 24100 ft | 324 kts | 314° |
| 2026-05-05 21:55 | 63.32808 | -50.13384 | 24099 ft | 325 kts | 314° |
| 2026-05-05 21:56 | 63.34335 | -50.17076 | 24101 ft | 325 kts | 314° |
| 2026-05-05 21:56 | 63.35870 | -50.20766 | 24102 ft | 325 kts | 314° |
| 2026-05-05 21:56 | 63.37396 | -50.24485 | 24102 ft | 325 kts | 314° |
| 2026-05-05 21:56 | 63.38924 | -50.28198 | 24101 ft | 325 kts | 314° |
| 2026-05-05 21:57 | 63.40459 | -50.31899 | 24104 ft | 325 kts | 314° |
| 2026-05-05 21:57 | 63.41980 | -50.35624 | 24103 ft | 325 kts | 314° |
| 2026-05-05 21:57 | 63.43507 | -50.39355 | 24101 ft | 325 kts | 314° |
| 2026-05-05 21:57 | 63.45016 | -50.43022 | 24097 ft | 325 kts | 314° |
| 2026-05-05 21:58 | 63.46538 | -50.46764 | 24096 ft | 325 kts | 314° |
| 2026-05-05 21:58 | 63.48062 | -50.50500 | 24094 ft | 325 kts | 314° |
| 2026-05-05 21:58 | 63.49584 | -50.54230 | 24089 ft | 324 kts | 314° |
| 2026-05-05 21:58 | 63.51098 | -50.57972 | 24093 ft | 325 kts | 314° |
| 2026-05-05 21:59 | 63.52624 | -50.61719 | 24094 ft | 326 kts | 314° |
| 2026-05-05 21:59 | 63.54149 | -50.65479 | 24094 ft | 326 kts | 314° |
| 2026-05-05 21:59 | 63.55646 | -50.69195 | 24096 ft | 325 kts | 314° |
| 2026-05-05 21:59 | 63.57166 | -50.72953 | 24091 ft | 326 kts | 314° |
| 2026-05-05 22:00 | 63.58690 | -50.76721 | 24094 ft | 326 kts | 314° |
| 2026-05-05 22:00 | 63.60204 | -50.80511 | 24092 ft | 326 kts | 314° |
| 2026-05-05 22:00 | 63.61724 | -50.84285 | 24086 ft | 326 kts | 314° |
| 2026-05-05 22:00 | 63.63244 | -50.88061 | 24078 ft | 326 kts | 313° |
| 2026-05-05 22:01 | 63.64757 | -50.91873 | 24080 ft | 326 kts | 314° |
| 2026-05-05 22:01 | 63.66281 | -50.95660 | 24085 ft | 326 kts | 314° |
| 2026-05-05 22:01 | 63.67777 | -50.99409 | 24081 ft | 327 kts | 313° |
| 2026-05-05 22:01 | 63.69288 | -51.03238 | 24083 ft | 327 kts | 314° |
| 2026-05-05 22:02 | 63.70813 | -51.07030 | 24081 ft | 326 kts | 314° |
| 2026-05-05 22:02 | 63.72324 | -51.10853 | 24083 ft | 326 kts | 313° |
| 2026-05-05 22:02 | 63.73831 | -51.14687 | 24086 ft | 326 kts | 314° |
| 2026-05-05 22:02 | 63.75352 | -51.18491 | 24078 ft | 327 kts | 314° |
| 2026-05-05 22:03 | 63.76863 | -51.22331 | 24085 ft | 327 kts | 313° |
| 2026-05-05 22:03 | 63.78365 | -51.26179 | 24089 ft | 326 kts | 313° |
| 2026-05-05 22:03 | 63.79886 | -51.30001 | 24083 ft | 327 kts | 314° |
| 2026-05-05 22:03 | 63.81373 | -51.33795 | 24085 ft | 327 kts | 313° |
| 2026-05-05 22:04 | 63.82875 | -51.37655 | 24080 ft | 327 kts | 313° |
| 2026-05-05 22:04 | 63.84390 | -51.41494 | 24079 ft | 327 kts | 314° |
| 2026-05-05 22:04 | 63.85905 | -51.45328 | 24082 ft | 326 kts | 313° |
| 2026-05-05 22:04 | 63.87395 | -51.49184 | 24085 ft | 321 kts | 313° |
| 2026-05-05 22:05 | 63.88876 | -51.52884 | 24050 ft | 312 kts | 317° |
| 2026-05-05 22:05 | 63.90471 | -51.56189 | 23834 ft | 310 kts | 322° |
| 2026-05-05 22:05 | 63.92144 | -51.59189 | 23459 ft | 304 kts | 327° |
| 2026-05-05 22:05 | 63.93866 | -51.61804 | 22757 ft | 300 kts | 330° |
| 2026-05-05 22:06 | 63.95641 | -51.64260 | 21986 ft | 296 kts | 333° |
| 2026-05-05 22:06 | 63.97416 | -51.66427 | 21209 ft | 284 kts | 336° |
| 2026-05-05 22:06 | 63.99195 | -51.68402 | 19976 ft | 288 kts | 339° |
| 2026-05-05 22:06 | 64.01036 | -51.70269 | 18761 ft | 290 kts | 340° |
| 2026-05-05 22:07 | 64.02904 | -51.72004 | 17427 ft | 292 kts | 343° |
| 2026-05-05 22:07 | 64.04793 | -51.73503 | 16329 ft | 284 kts | 346° |
| 2026-05-05 22:07 | 64.06663 | -51.74695 | 15183 ft | 280 kts | 349° |
| 2026-05-05 22:07 | 64.08520 | -51.75664 | 14185 ft | 268 kts | 353° |
| 2026-05-05 22:08 | 64.10398 | -51.76033 | 12648 ft | 277 kts | 2° |
| 2026-05-05 22:08 | 64.12309 | -51.76023 | 11455 ft | 271 kts | 5° |
| 2026-05-05 22:08 | 64.14179 | -51.75855 | 10316 ft | 265 kts | 6° |
| 2026-05-05 22:08 | 64.15957 | -51.75635 | 9401 ft | 248 kts | 6° |
| 2026-05-05 22:09 | 64.17671 | -51.75381 | 8464 ft | 238 kts | 2° |
| 2026-05-05 22:09 | 64.19181 | -51.76171 | 7915 ft | 216 kts | 334° |
| 2026-05-05 22:09 | 64.20308 | -51.78278 | 7265 ft | 203 kts | 311° |
| 2026-05-05 22:09 | 64.21011 | -51.80961 | 6587 ft | 198 kts | 294° |
| 2026-05-05 22:10 | 64.21437 | -51.83922 | 5916 ft | 193 kts | 285° |
| 2026-05-05 22:10 | 64.21678 | -51.86899 | 5316 ft | 187 kts | 278° |
| 2026-05-05 22:10 | 64.21751 | -51.89807 | 4789 ft | 180 kts | 269° |
| 2026-05-05 22:10 | 64.21583 | -51.92686 | 4217 ft | 184 kts | 257° |
| 2026-05-05 22:11 | 64.21164 | -51.95419 | 3787 ft | 181 kts | 243° |
| 2026-05-05 22:11 | 64.20379 | -51.97601 | 3386 ft | 177 kts | 216° |
| 2026-05-05 22:11 | 64.19268 | -51.98737 | 2899 ft | 176 kts | 192° |
| 2026-05-05 22:11 | 64.18077 | -51.98855 | 2582 ft | 167 kts | 173° |
| 2026-05-05 22:12 | 64.17012 | -51.98130 | 2376 ft | 161 kts | 154° |
| 2026-05-05 22:12 | 64.16062 | -51.96804 | 2173 ft | 159 kts | 144° |
| 2026-05-05 22:12 | 64.15216 | -51.95186 | 1974 ft | 157 kts | 131° |
| 2026-05-05 22:12 | 64.14608 | -51.93135 | 1882 ft | 154 kts | 115° |
| 2026-05-05 22:13 | 64.14199 | -51.90867 | 1744 ft | 156 kts | 107° |
| 2026-05-05 22:13 | 64.13970 | -51.88436 | 1589 ft | 157 kts | 96° |
| 2026-05-05 22:13 | 64.13891 | -51.85924 | 1479 ft | 162 kts | 88° |
| 2026-05-05 22:13 | 64.14025 | -51.83465 | 1465 ft | 146 kts | 75° |
| 2026-05-05 22:14 | 64.14331 | -51.81276 | 1417 ft | 145 kts | 69° |
| 2026-05-05 22:14 | 64.14679 | -51.79115 | 1421 ft | 143 kts | 70° |
| 2026-05-05 22:14 | 64.14971 | -51.76930 | 1363 ft | 146 kts | 71° |
| 2026-05-05 22:14 | 64.15316 | -51.74870 | 1382 ft | 131 kts | 64° |
| 2026-05-05 22:15 | 64.15712 | -51.72991 | 1228 ft | 128 kts | 62° |
| 2026-05-05 22:15 | 64.16184 | -51.71311 | 1009 ft | 126 kts | 49° |
| 2026-05-05 22:15 | 64.16829 | -51.69938 | 695 ft | 128 kts | 37° |
| 2026-05-05 22:15 | 64.17610 | -51.69031 | 433 ft | 124 kts | 20° |
| 2026-05-05 22:16 | 64.18389 | -51.68446 | 296 ft | 111 kts | 20° |
| 2026-05-05 22:16 | 64.19059 | -51.67939 | 279 ft | 88 kts | 21° |
| 2026-05-05 22:16 | 64.19294 | -51.67803 | 275 ft | 19 kts | 1° |
| 2026-05-05 22:16 | 64.19312 | -51.67747 | 275 ft | 7 kts | 195° |
| 2026-05-05 22:17 | 64.19237 | -51.67827 | 275 ft | 13 kts | 202° |
| 2026-05-05 22:17 | 64.19153 | -51.67885 | 277 ft | 12 kts | 195° |
| 2026-05-05 22:17 | 64.19095 | -51.67787 | 278 ft | 15 kts | 102° |
| 2026-05-05 22:17 | 64.19073 | -51.67613 | 278 ft | 11 kts | 102° |
| 2026-05-05 22:18 | 64.19090 | -51.67467 | 278 ft | 9 kts | 70° |
| 2026-05-05 22:18 | 64.19087 | -51.67375 | 278 ft | 5 kts | 107° |
| 2026-05-05 22:18 | 64.19086 | -51.67367 | 278 ft | 0 kts | 107° |